Time;durP1;ratioP1;P1;durP2;ratioP2;P2;SDS_P1;SDS_P2;PMS_P1;PMS_P2;Temp;Humidity;BMP_temperature;BMP_pressure;BME280_temperature;BME280_humidity;BME280_pressure;Samples;Min_cycle;Max_cycle;Signal;HPM_P1;HPM_P2
2023/07/19 00:01:54;;;;;;;2.13;1.93;;;14.30;99.90;;;;;;5029198;28;20550;-52
2023/07/19 00:04:21;;;;;;;3.20;1.90;;;14.30;99.90;;;;;;5034878;28;20549;-53
2023/07/19 00:06:49;;;;;;;2.20;2.10;;;14.20;99.90;;;;;;5045310;28;20518;-55
2023/07/19 00:09:15;;;;;;;5.40;2.07;;;14.20;99.90;;;;;;5041847;28;20538;-55
2023/07/19 00:11:42;;;;;;;2.77;2.50;;;14.30;99.90;;;;;;5029661;28;21023;-55
2023/07/19 00:14:09;;;;;;;5.13;2.13;;;14.20;94.50;;;;;;5040997;28;20464;-56
2023/07/19 00:16:35;;;;;;;2.47;2.27;;;14.20;99.90;;;;;;5034855;28;20939;-53
2023/07/19 00:19:02;;;;;;;8.13;2.10;;;14.30;99.90;;;;;;5028749;28;20494;-54
2023/07/19 00:21:28;;;;;;;2.00;1.90;;;14.20;99.90;;;;;;5033395;28;20902;-53
2023/07/19 00:23:56;;;;;;;8.43;3.00;;;14.20;95.80;;;;;;5034625;28;20496;-54
2023/07/19 00:26:23;;;;;;;1.50;1.40;;;14.10;98.10;;;;;;5042929;28;20510;-55
2023/07/19 00:28:49;;;;;;;3.50;2.37;;;14.10;99.90;;;;;;5042612;28;20491;-55
2023/07/19 00:31:16;;;;;;;3.63;2.70;;;14.10;99.90;;;;;;5032707;28;20513;-54
2023/07/19 00:33:42;;;;;;;5.60;2.23;;;14.00;99.90;;;;;;5034873;28;20494;-54
2023/07/19 00:36:09;;;;;;;3.00;1.93;;;13.90;99.90;;;;;;5041829;28;20554;-55
2023/07/19 00:38:36;;;;;;;4.50;2.03;;;14.00;99.80;;;;;;5043303;28;20469;-54
2023/07/19 00:41:03;;;;;;;11.43;2.30;;;14.00;95.50;;;;;;5039804;28;20508;-56
2023/07/19 00:43:30;;;;;;;3.03;1.80;;;14.10;94.90;;;;;;5033768;28;20463;-54
2023/07/19 00:45:57;;;;;;;7.93;2.07;;;14.00;99.90;;;;;;5039607;28;20504;-56
2023/07/19 00:48:24;;;;;;;3.20;2.10;;;14.10;99.90;;;;;;5034393;28;20474;-54
2023/07/19 00:50:53;;;;;;;3.10;2.27;;;14.00;99.90;;;;;;5036042;28;20520;-54
2023/07/19 00:53:20;;;;;;;4.57;1.97;;;13.90;92.20;;;;;;5029679;28;20462;-55
2023/07/19 00:55:49;;;;;;;2.07;1.97;;;13.70;99.90;;;;;;5043395;28;20893;-53
2023/07/19 00:58:19;;;;;;;2.30;1.90;;;13.50;98.50;;;;;;5042238;28;20513;-55
2023/07/19 01:00:45;;;;;;;3.73;1.80;;;13.50;93.50;;;;;;5040091;28;20485;-53
2023/07/19 01:03:12;;;;;;;4.40;2.03;;;13.70;87.60;;;;;;5032536;28;20868;-53
2023/07/19 01:05:39;;;;;;;5.93;2.47;;;13.50;96.50;;;;;;5042759;28;20513;-55
2023/07/19 01:08:06;;;;;;;1.93;1.83;;;13.50;93.60;;;;;;5041616;28;21034;-53
2023/07/19 01:10:33;;;;;;;4.17;2.03;;;13.40;88.30;;;;;;5037693;28;20512;-54
2023/07/19 01:13:04;;;;;;;1.97;1.87;;;13.50;81.00;;;;;;5031735;28;20545;-55
2023/07/19 01:15:32;;;;;;;2.40;1.90;;;13.40;78.30;;;;;;5034196;28;20547;-53
2023/07/19 01:17:58;;;;;;;3.33;2.37;;;13.50;78.60;;;;;;5033817;28;20498;-54
2023/07/19 01:20:25;;;;;;;4.37;2.50;;;13.50;83.70;;;;;;5034061;28;20498;-54
2023/07/19 01:22:53;;;;;;;2.27;2.07;;;13.40;81.70;;;;;;5033229;28;20574;-55
2023/07/19 01:25:20;;;;;;;3.43;2.30;;;13.40;89.70;;;;;;5039404;28;20512;-54
2023/07/19 01:27:46;;;;;;;2.33;2.13;;;13.60;85.60;;;;;;5031692;28;20514;-54
2023/07/19 01:30:14;;;;;;;5.00;2.13;;;13.60;87.20;;;;;;5031362;28;20509;-54
2023/07/19 01:32:40;;;;;;;2.13;2.03;;;13.60;90.50;;;;;;5033523;28;20503;-54
2023/07/19 01:35:08;;;;;;;5.23;2.50;;;13.50;82.20;;;;;;5044443;28;20487;-55
2023/07/19 01:37:34;;;;;;;2.60;1.90;;;13.20;93.30;;;;;;5036364;28;20916;-55
2023/07/19 01:40:04;;;;;;;2.20;2.00;;;13.20;85.60;;;;;;5032052;28;21091;-54
2023/07/19 01:42:30;;;;;;;3.53;2.07;;;13.20;83.30;;;;;;5031526;28;20467;-53
2023/07/19 01:44:59;;;;;;;2.23;1.80;;;13.30;76.90;;;;;;5038835;28;20498;-55
2023/07/19 01:47:25;;;;;;;3.50;2.47;;;13.30;76.10;;;;;;5041009;28;20855;-55
2023/07/19 01:49:52;;;;;;;3.57;2.70;;;13.40;81.40;;;;;;5039952;28;20574;-53
2023/07/19 01:52:19;;;;;;;5.73;2.37;;;13.40;73.60;;;;;;5031703;28;20546;-54
2023/07/19 01:54:45;;;;;;;2.17;2.07;;;13.40;75.00;;;;;;5030673;28;20550;-54
2023/07/19 01:57:13;;;;;;;5.47;2.50;;;13.30;71.00;;;;;;5032039;28;20509;-54
2023/07/19 01:59:40;;;;;;;11.57;2.37;;;13.30;78.90;;;;;;5029838;28;20614;-55
2023/07/19 02:02:06;;;;;;;7.80;2.60;;;13.20;75.30;;;;;;5031219;28;21016;-55
2023/07/19 02:04:33;;;;;;;2.80;1.90;;;13.20;74.20;;;;;;5037102;28;21023;-54
2023/07/19 02:06:59;;;;;;;4.00;2.20;;;13.40;74.40;;;;;;5043990;28;20576;-54
2023/07/19 02:09:26;;;;;;;2.40;2.20;;;13.40;75.20;;;;;;5042195;28;20557;-55
2023/07/19 02:11:52;;;;;;;4.63;2.00;;;13.50;71.50;;;;;;5039160;28;20904;-55
2023/07/19 02:14:20;;;;;;;4.40;2.37;;;13.50;76.50;;;;;;5030980;28;20543;-55
2023/07/19 02:16:47;;;;;;;2.17;1.97;;;13.60;71.80;;;;;;5027140;28;20474;-55
2023/07/19 02:19:14;;;;;;;3.20;2.40;;;13.50;79.90;;;;;;5026394;28;20539;-55
2023/07/19 02:21:41;;;;;;;7.73;2.17;;;13.60;70.50;;;;;;5031256;28;20497;-53
2023/07/19 02:24:07;;;;;;;2.30;2.03;;;13.60;80.00;;;;;;5038998;28;20817;-54
2023/07/19 02:26:34;;;;;;;2.23;1.90;;;13.50;80.90;;;;;;5041552;28;20565;-54
2023/07/19 02:29:02;;;;;;;8.43;2.37;;;13.50;78.80;;;;;;5047440;28;20553;-53
2023/07/19 02:31:30;;;;;;;6.40;1.87;;;13.50;83.10;;;;;;5028792;28;20517;-53
2023/07/19 02:33:56;;;;;;;2.83;1.87;;;13.40;75.00;;;;;;5032021;28;20502;-53
2023/07/19 02:36:23;;;;;;;3.00;2.73;;;13.40;78.30;;;;;;5037315;28;20497;-54
2023/07/19 02:38:49;;;;;;;2.80;2.33;;;13.30;82.50;;;;;;5043339;28;20464;-52
2023/07/19 02:41:16;;;;;;;2.07;1.97;;;13.40;82.00;;;;;;5035999;28;20538;-51
2023/07/19 02:43:42;;;;;;;3.57;2.20;;;13.40;76.00;;;;;;5033105;28;20494;-51
2023/07/19 02:46:09;;;;;;;5.43;2.50;;;13.40;79.20;;;;;;5037225;28;20574;-51
2023/07/19 02:48:37;;;;;;;2.30;2.10;;;13.40;77.20;;;;;;5030594;28;20474;-52
2023/07/19 02:51:03;;;;;;;5.20;3.00;;;13.40;83.10;;;;;;5034276;28;20546;-51
2023/07/19 02:53:30;;;;;;;2.77;2.53;;;13.40;80.80;;;;;;5028604;28;20886;-51
2023/07/19 02:55:56;;;;;;;3.87;2.00;;;13.50;78.00;;;;;;5039598;28;20541;-52
2023/07/19 02:58:24;;;;;;;3.07;2.47;;;13.40;84.40;;;;;;5031986;28;20483;-52
2023/07/19 03:00:53;;;;;;;2.07;1.97;;;13.30;83.40;;;;;;5031067;28;20455;-52
2023/07/19 03:03:20;;;;;;;5.13;2.43;;;13.30;77.90;;;;;;5029994;28;20466;-51
2023/07/19 03:05:48;;;;;;;3.10;2.20;;;13.30;73.50;;;;;;5030918;28;21060;-51
2023/07/19 03:08:13;;;;;;;2.70;2.50;;;13.20;76.00;;;;;;5036008;28;20508;-51
2023/07/19 03:10:40;;;;;;;2.07;1.90;;;13.20;74.40;;;;;;5035084;28;20483;-52
2023/07/19 03:13:07;;;;;;;3.97;2.07;;;13.30;74.50;;;;;;5031212;28;20204;-51
2023/07/19 03:15:34;;;;;;;3.33;2.60;;;13.30;67.70;;;;;;5037720;28;20473;-52
2023/07/19 03:18:01;;;;;;;4.30;2.70;;;13.30;75.50;;;;;;5031745;28;20525;-51
2023/07/19 03:20:28;;;;;;;2.00;1.90;;;13.40;74.80;;;;;;5041262;28;20489;-51
2023/07/19 03:22:56;;;;;;;3.53;2.47;;;13.30;74.60;;;;;;5026805;28;20452;-51
2023/07/19 03:25:23;;;;;;;4.90;2.50;;;13.30;71.50;;;;;;5037549;28;20516;-51
2023/07/19 03:27:50;;;;;;;2.43;2.20;;;13.20;68.10;;;;;;5035854;28;20513;-50
2023/07/19 03:30:17;;;;;;;6.90;3.13;;;13.20;67.90;;;;;;5041085;28;20971;-51
2023/07/19 03:32:43;;;;;;;5.77;2.80;;;13.30;68.00;;;;;;5036318;28;20992;-50
2023/07/19 03:35:10;;;;;;;3.37;2.30;;;13.30;57.50;;;;;;5046327;28;20487;-52
2023/07/19 03:37:37;;;;;;;5.70;2.77;;;13.40;61.90;;;;;;5038126;28;20573;-51
2023/07/19 03:40:06;;;;;;;3.83;2.30;;;13.40;66.50;;;;;;5031226;28;21466;-51
2023/07/19 03:42:33;;;;;;;3.40;2.90;;;13.40;64.20;;;;;;5042977;28;20483;-52
2023/07/19 03:45:00;;;;;;;4.20;2.67;;;13.30;66.60;;;;;;5044431;28;20538;-51
2023/07/19 03:47:26;;;;;;;3.30;2.57;;;13.40;64.30;;;;;;5039006;28;21019;-51
2023/07/19 03:49:53;;;;;;;9.83;2.77;;;13.30;65.10;;;;;;5043045;28;20496;-51
2023/07/19 03:52:19;;;;;;;7.43;2.97;;;13.30;65.50;;;;;;5050529;28;20481;-52
2023/07/19 03:54:46;;;;;;;2.60;2.50;;;13.30;59.60;;;;;;5045774;28;21023;-51
2023/07/19 03:57:13;;;;;;;4.37;2.60;;;13.30;47.70;;;;;;5032051;28;20569;-51
2023/07/19 03:59:40;;;;;;;2.77;2.57;;;13.30;56.70;;;;;;5038667;28;20553;-52
2023/07/19 04:02:07;;;;;;;3.50;2.80;;;13.40;54.10;;;;;;5042149;28;20554;-51
2023/07/19 04:04:33;;;;;;;7.93;3.47;;;13.40;56.30;;;;;;5041081;28;20485;-52
2023/07/19 04:07:00;;;;;;;3.93;2.70;;;13.40;54.90;;;;;;5042803;28;20518;-52
2023/07/19 04:09:26;;;;;;;5.70;3.20;;;13.50;50.50;;;;;;5045451;28;20496;-51
2023/07/19 04:11:53;;;;;;;4.63;2.90;;;13.50;55.10;;;;;;5036677;28;20505;-52
2023/07/19 04:14:21;;;;;;;3.73;2.60;;;13.50;53.80;;;;;;5043638;28;20559;-52
2023/07/19 04:16:47;;;;;;;4.83;3.23;;;13.50;54.90;;;;;;5044507;28;20566;-52
2023/07/19 04:19:14;;;;;;;3.53;2.57;;;13.50;53.50;;;;;;5036367;28;20964;-51
2023/07/19 04:21:40;;;;;;;6.57;2.80;;;13.60;50.60;;;;;;5038779;28;20549;-51
2023/07/19 04:24:07;;;;;;;3.70;2.43;;;13.70;53.40;;;;;;5050505;28;20459;-51
2023/07/19 04:26:34;;;;;;;10.17;2.90;;;13.80;51.40;;;;;;5037287;28;20491;-51
2023/07/19 04:29:00;;;;;;;3.53;2.70;;;13.90;53.10;;;;;;5036317;28;20498;-51
2023/07/19 04:31:28;;;;;;;5.27;2.57;;;14.00;53.70;;;;;;5035182;28;20550;-51
2023/07/19 04:33:55;;;;;;;4.70;3.20;;;14.10;54.00;;;;;;5036651;28;20879;-51
2023/07/19 04:36:21;;;;;;;5.30;2.87;;;14.20;55.00;;;;;;5037552;28;20514;-52
2023/07/19 04:38:48;;;;;;;5.97;3.50;;;14.30;52.60;;;;;;5033366;28;20562;-51
2023/07/19 04:41:15;;;;;;;5.90;3.20;;;14.40;54.00;;;;;;5040819;28;20545;-51
2023/07/19 04:43:41;;;;;;;13.10;3.80;;;14.50;51.70;;;;;;5045580;28;20478;-51
2023/07/19 04:46:08;;;;;;;4.10;2.80;;;14.60;54.30;;;;;;5043147;28;20586;-51
2023/07/19 04:48:35;;;;;;;5.83;3.33;;;14.80;52.50;;;;;;5027197;28;20562;-51
2023/07/19 04:51:02;;;;;;;4.50;3.33;;;14.80;52.30;;;;;;5035381;28;20550;-51
2023/07/19 04:53:28;;;;;;;6.57;3.50;;;14.90;53.20;;;;;;5036118;28;20498;-51
2023/07/19 04:55:55;;;;;;;9.10;3.07;;;15.00;56.80;;;;;;5041890;28;20553;-51
2023/07/19 04:58:22;;;;;;;7.43;3.77;;;15.10;52.90;;;;;;5031334;28;20570;-51
2023/07/19 05:00:48;;;;;;;4.63;3.67;;;15.20;55.20;;;;;;5040915;28;20500;-51
2023/07/19 05:03:15;;;;;;;9.30;3.70;;;15.30;63.90;;;;;;5025510;28;20899;-51
2023/07/19 05:05:43;;;;;;;7.10;4.00;;;15.40;65.10;;;;;;5031895;28;20809;-52
2023/07/19 05:08:09;;;;;;;7.77;3.47;;;15.40;65.20;;;;;;5034556;28;22560;-51
2023/07/19 05:10:36;;;;;;;4.03;3.27;;;15.50;73.20;;;;;;5032921;28;20498;-51
2023/07/19 05:13:03;;;;;;;6.63;3.80;;;15.60;75.00;;;;;;5034043;28;20447;-52
2023/07/19 05:15:30;;;;;;;10.50;3.50;;;15.60;74.50;;;;;;5032926;28;21031;-51
2023/07/19 05:17:57;;;;;;;3.23;2.67;;;15.70;74.10;;;;;;5035806;28;20915;-51
2023/07/19 05:20:24;;;;;;;4.03;2.60;;;15.80;85.80;;;;;;5033925;28;21036;-52
2023/07/19 05:22:52;;;;;;;8.87;3.20;;;15.80;88.20;;;;;;5042102;28;20833;-52
2023/07/19 05:25:18;;;;;;;4.50;2.80;;;15.90;88.40;;;;;;5043036;28;20543;-52
2023/07/19 05:27:45;;;;;;;4.17;3.07;;;16.00;81.60;;;;;;5034990;28;20617;-51
2023/07/19 05:30:12;;;;;;;8.80;3.20;;;16.00;86.80;;;;;;5038880;28;20591;-51
2023/07/19 05:32:39;;;;;;;4.90;2.97;;;16.10;88.90;;;;;;5033865;28;20545;-51
2023/07/19 05:35:06;;;;;;;4.23;3.10;;;16.10;96.90;;;;;;5031630;28;20527;-51
2023/07/19 05:37:33;;;;;;;5.37;2.87;;;16.20;99.90;;;;;;5041511;28;20511;-51
2023/07/19 05:40:00;;;;;;;2.93;2.63;;;16.30;99.90;;;;;;5042069;28;20548;-51
2023/07/19 05:42:27;;;;;;;6.30;3.13;;;16.30;99.90;;;;;;5040154;28;20554;-51
2023/07/19 05:44:53;;;;;;;7.13;3.30;;;16.40;99.90;;;;;;5033459;28;20538;-51
2023/07/19 05:47:20;;;;;;;7.70;3.80;;;16.40;99.90;;;;;;5033462;28;20482;-51
2023/07/19 05:49:46;;;;;;;5.87;2.67;;;16.40;99.90;;;;;;5028994;28;20547;-51
2023/07/19 05:52:13;;;;;;;3.17;2.60;;;16.40;99.90;;;;;;5044667;28;21044;-51
2023/07/19 05:54:40;;;;;;;5.30;2.73;;;16.50;99.90;;;;;;5030606;28;20557;-51
2023/07/19 05:57:07;;;;;;;5.20;3.03;;;16.40;99.90;;;;;;5035978;28;21017;-50
2023/07/19 05:59:34;;;;;;;2.90;2.47;;;16.50;99.90;;;;;;5039136;28;20538;-51
2023/07/19 06:02:00;;;;;;;2.77;2.50;;;16.60;99.90;;;;;;5042620;28;20546;-52
2023/07/19 06:04:27;;;;;;;4.30;2.73;;;16.60;99.90;;;;;;5032133;28;20566;-50
2023/07/19 06:06:53;;;;;;;7.40;2.60;;;16.70;99.90;;;;;;5038677;28;20570;-50
2023/07/19 06:09:20;;;;;;;6.70;2.70;;;16.70;99.90;;;;;;5020454;28;20850;-51
2023/07/19 06:11:47;;;;;;;7.00;2.80;;;16.80;99.90;;;;;;5019282;28;20550;-50
2023/07/19 06:14:15;;;;;;;9.30;2.70;;;16.80;99.90;;;;;;5033651;28;20489;-51
2023/07/19 06:16:41;;;;;;;7.30;2.80;;;16.90;99.90;;;;;;5032476;28;20483;-51
2023/07/19 06:19:08;;;;;;;6.57;2.30;;;16.90;99.90;;;;;;5031138;28;20528;-52
2023/07/19 06:21:34;;;;;;;5.50;2.50;;;17.00;99.90;;;;;;5031267;28;20465;-50
2023/07/19 06:24:01;;;;;;;8.00;2.30;;;17.10;99.90;;;;;;5028434;28;20545;-52
2023/07/19 06:26:28;;;;;;;8.50;2.53;;;17.20;99.90;;;;;;5041313;28;20512;-51
2023/07/19 06:28:54;;;;;;;3.50;2.30;;;17.30;99.90;;;;;;5034857;28;20546;-51
2023/07/19 06:31:22;;;;;;;3.10;2.03;;;17.40;99.90;;;;;;5027832;28;21064;-51
2023/07/19 06:33:49;;;;;;;21.93;2.70;;;17.40;99.90;;;;;;5020499;28;20585;-51
2023/07/19 06:36:15;;;;;;;9.57;2.30;;;17.50;99.90;;;;;;5029511;28;20459;-52
2023/07/19 06:38:42;;;;;;;31.97;2.57;;;17.60;99.90;;;;;;5030694;28;20542;-52
2023/07/19 06:41:08;;;;;;;7.90;2.23;;;17.70;99.90;;;;;;5036453;28;20537;-51
2023/07/19 06:43:35;;;;;;;6.90;2.47;;;17.80;99.90;;;;;;5033757;28;20494;-51
2023/07/19 06:46:01;;;;;;;5.13;2.37;;;17.90;99.90;;;;;;5029743;28;20491;-52
2023/07/19 06:48:29;;;;;;;7.80;2.53;;;18.00;99.90;;;;;;5029593;28;20474;-51
2023/07/19 06:50:57;;;;;;;6.53;2.50;;;18.10;99.90;;;;;;5033528;28;21006;-52
2023/07/19 06:53:23;;;;;;;3.03;2.23;;;18.10;99.90;;;;;;5046270;28;20458;-52
2023/07/19 06:55:52;;;;;;;9.27;2.27;;;18.30;99.90;;;;;;5032686;28;20541;-52
2023/07/19 06:58:18;;;;;;;13.80;2.47;;;18.40;84.90;;;;;;5022973;28;20521;-51
2023/07/19 07:00:45;;;;;;;6.50;2.37;;;18.40;29.40;;;;;;5037595;28;20547;-51
2023/07/19 07:03:12;;;;;;;4.83;2.37;;;18.50;32.10;;;;;;5030569;28;20550;-51
2023/07/19 07:05:40;;;;;;;4.13;2.33;;;18.60;36.30;;;;;;5031012;28;20478;-51
2023/07/19 07:08:06;;;;;;;4.90;2.37;;;18.60;37.60;;;;;;5034653;28;20513;-51
2023/07/19 07:10:33;;;;;;;5.63;2.13;;;18.70;32.80;;;;;;5031449;28;20972;-52
2023/07/19 07:12:59;;;;;;;10.00;2.27;;;18.80;33.80;;;;;;5036523;28;20489;-51
2023/07/19 07:15:26;;;;;;;8.20;3.27;;;18.80;36.20;;;;;;5036262;28;20467;-52
2023/07/19 07:17:53;;;;;;;5.73;2.30;;;18.90;62.60;;;;;;5038674;28;20574;-52
2023/07/19 07:20:19;;;;;;;24.80;2.00;;;19.00;79.00;;;;;;5029792;28;20459;-52
2023/07/19 07:22:47;;;;;;;3.93;1.97;;;19.10;86.60;;;;;;5039345;28;20623;-51
2023/07/19 07:25:14;;;;;;;2.10;1.80;;;19.30;85.70;;;;;;5029048;28;20463;-52
2023/07/19 07:27:40;;;;;;;6.47;1.90;;;19.50;89.80;;;;;;5028211;28;20565;-53
2023/07/19 07:30:09;;;;;;;7.90;2.33;;;19.50;99.90;;;;;;5020949;28;20558;-51
2023/07/19 07:32:36;;;;;;;12.83;1.73;;;19.60;99.90;;;;;;5025219;28;20478;-53
2023/07/19 07:35:06;;;;;;;2.57;1.90;;;19.70;99.90;;;;;;5026393;28;20546;-53
2023/07/19 07:37:33;;;;;;;5.90;2.30;;;19.80;99.90;;;;;;5030714;28;20926;-51
2023/07/19 07:40:00;;;;;;;16.13;1.77;;;19.80;99.90;;;;;;5037547;28;21061;-51
2023/07/19 07:42:27;;;;;;;5.80;1.73;;;19.80;99.90;;;;;;5029519;28;20553;-52
2023/07/19 07:44:53;;;;;;;1.83;1.60;;;19.90;99.90;;;;;;5036498;28;20912;-52
2023/07/19 07:47:20;;;;;;;3.77;1.50;;;19.90;99.90;;;;;;5042403;28;20676;-52
2023/07/19 07:49:47;;;;;;;2.17;1.37;;;19.90;99.90;;;;;;5029531;28;20545;-52
2023/07/19 07:52:15;;;;;;;4.07;1.77;;;20.00;99.90;;;;;;5031079;28;20975;-52
2023/07/19 07:54:42;;;;;;;5.53;2.17;;;20.00;99.90;;;;;;5042495;28;20446;-52
2023/07/19 07:57:10;;;;;;;1.27;1.17;;;20.10;99.90;;;;;;5029155;28;20979;-51
2023/07/19 07:59:36;;;;;;;4.47;2.33;;;20.20;99.90;;;;;;5029128;28;20545;-52
2023/07/19 08:02:03;;;;;;;4.07;1.80;;;20.30;99.90;;;;;;5027334;28;20510;-52
2023/07/19 08:04:29;;;;;;;4.97;1.60;;;20.40;99.90;;;;;;5038546;28;20881;-52
2023/07/19 08:06:56;;;;;;;4.57;1.87;;;20.40;99.90;;;;;;5032920;28;20509;-52
2023/07/19 08:09:22;;;;;;;9.30;2.20;;;20.50;99.90;;;;;;5031271;28;20502;-51
2023/07/19 08:11:49;;;;;;;7.13;1.83;;;20.40;99.90;;;;;;5033106;28;20557;-53
2023/07/19 08:14:19;;;;;;;3.20;1.87;;;20.50;99.90;;;;;;5037759;28;20896;-53
2023/07/19 08:16:46;;;;;;;4.60;1.70;;;20.60;99.90;;;;;;5045205;28;20850;-53
2023/07/19 08:19:13;;;;;;;10.13;2.50;;;20.50;99.90;;;;;;5030769;28;20458;-52
2023/07/19 08:21:39;;;;;;;6.57;2.90;;;20.60;99.90;;;;;;5044981;28;20891;-53
2023/07/19 08:24:06;;;;;;;4.40;1.90;;;20.50;99.90;;;;;;5040185;28;20553;-52
2023/07/19 08:26:33;;;;;;;4.00;1.90;;;20.60;99.90;;;;;;5041233;28;20564;-52
2023/07/19 08:28:59;;;;;;;3.07;2.00;;;20.60;99.90;;;;;;5031410;28;20578;-52
2023/07/19 08:31:27;;;;;;;7.80;1.83;;;20.70;99.90;;;;;;5035916;28;20553;-53
2023/07/19 08:33:54;;;;;;;13.47;2.63;;;20.90;99.90;;;;;;5030859;28;20905;-53
2023/07/19 08:36:20;;;;;;;4.03;1.90;;;21.00;99.90;;;;;;5022365;28;20569;-53
2023/07/19 08:38:48;;;;;;;7.07;2.00;;;21.10;99.90;;;;;;5027433;28;20939;-56
2023/07/19 08:41:18;;;;;;;12.70;1.80;;;21.20;99.90;;;;;;5034847;28;20546;-55
2023/07/19 08:43:45;;;;;;;4.53;2.13;;;21.30;99.90;;;;;;5032448;28;20553;-56
2023/07/19 08:46:15;;;;;;;8.20;2.20;;;21.40;99.90;;;;;;5033163;28;20905;-55
2023/07/19 08:48:47;;;;;;;4.13;2.43;;;21.40;99.90;;;;;;5036471;28;20530;-52
2023/07/19 08:51:15;;;;;;;4.30;2.03;;;21.60;99.90;;;;;;5032643;28;20463;-55
2023/07/19 08:53:41;;;;;;;5.67;2.97;;;21.60;99.90;;;;;;5040408;28;20536;-55
2023/07/19 08:56:08;;;;;;;7.07;2.40;;;21.60;99.90;;;;;;5038845;28;20545;-54
2023/07/19 08:58:37;;;;;;;14.87;2.10;;;21.90;99.90;;;;;;5030951;28;20497;-55
2023/07/19 09:01:03;;;;;;;9.00;2.70;;;22.10;99.90;;;;;;5034735;28;20971;-54
2023/07/19 09:03:30;;;;;;;7.13;2.43;;;22.10;99.90;;;;;;5032199;28;20466;-55
2023/07/19 09:05:58;;;;;;;9.00;2.23;;;22.10;99.90;;;;;;5025232;28;20874;-55
2023/07/19 09:08:35;;;;;;;5.13;2.20;;;22.10;99.90;;;;;;5035598;28;20576;-55
2023/07/19 09:11:01;;;;;;;7.80;2.00;;;22.20;99.90;;;;;;5025454;28;20488;-55
2023/07/19 09:13:31;;;;;;;10.50;2.30;;;22.30;99.90;;;;;;5026501;28;20491;-54
2023/07/19 09:15:57;;;;;;;5.77;2.43;;;22.40;99.90;;;;;;5034553;28;20453;-55
2023/07/19 09:18:29;;;;;;;5.30;1.97;;;22.60;99.90;;;;;;5033444;28;20530;-54
2023/07/19 09:20:59;;;;;;;6.60;2.40;;;22.60;99.90;;;;;;5034644;28;20697;-55
2023/07/19 09:23:26;;;;;;;10.80;2.60;;;22.70;99.90;;;;;;5025833;28;20471;-55
2023/07/19 09:25:54;;;;;;;6.37;1.93;;;22.70;99.90;;;;;;5033262;28;20459;-55
2023/07/19 09:28:22;;;;;;;5.57;1.93;;;22.80;99.90;;;;;;5030596;28;20581;-55
2023/07/19 09:30:56;;;;;;;10.20;2.27;;;23.10;99.90;;;;;;5028809;28;20471;-55
2023/07/19 09:33:25;;;;;;;7.10;2.20;;;23.00;99.90;;;;;;5030325;28;20964;-55
2023/07/19 09:35:55;;;;;;;4.97;1.83;;;23.10;99.90;;;;;;5027492;28;20459;-55
2023/07/19 09:38:24;;;;;;;6.07;2.40;;;23.10;99.90;;;;;;5038348;28;20478;-55
2023/07/19 09:40:52;;;;;;;4.93;2.53;;;23.00;99.90;;;;;;5025083;28;20553;-54
2023/07/19 09:43:19;;;;;;;21.17;1.90;;;22.90;99.90;;;;;;5026780;28;20613;-55
2023/07/19 09:45:49;;;;;;;2.67;1.77;;;22.90;99.90;;;;;;5029777;28;20463;-53
2023/07/19 09:48:17;;;;;;;3.70;2.10;;;23.00;99.90;;;;;;5029143;28;20979;-54
2023/07/19 09:50:43;;;;;;;5.73;2.43;;;23.00;99.90;;;;;;5031133;28;20529;-54
2023/07/19 09:53:12;;;;;;;4.00;2.00;;;23.00;99.90;;;;;;5029123;28;20502;-55
2023/07/19 09:55:40;;;;;;;6.80;1.90;;;23.00;99.90;;;;;;5034257;28;20536;-55
2023/07/19 09:58:11;;;;;;;3.83;2.30;;;23.00;99.90;;;;;;5030583;28;20918;-54
2023/07/19 10:00:38;;;;;;;12.50;2.33;;;23.30;99.90;;;;;;5031607;28;20517;-56
2023/07/19 10:03:06;;;;;;;3.23;2.10;;;23.70;99.90;;;;;;5033793;28;20546;-55
2023/07/19 10:05:33;;;;;;;7.80;2.90;;;23.80;99.90;;;;;;5020438;28;20462;-54
2023/07/19 10:08:04;;;;;;;8.40;2.37;;;23.80;99.90;;;;;;5028147;28;20582;-54
2023/07/19 10:10:36;;;;;;;8.90;2.70;;;23.80;99.90;;;;;;5024224;28;20953;-55
2023/07/19 10:13:04;;;;;;;9.03;2.07;;;23.80;99.90;;;;;;5030320;28;20457;-53
2023/07/19 10:15:31;;;;;;;6.40;2.50;;;23.80;99.90;;;;;;5028751;28;20843;-56
2023/07/19 10:17:59;;;;;;;12.40;2.60;;;23.90;99.90;;;;;;5030529;28;20471;-54
2023/07/19 10:20:30;;;;;;;3.50;1.93;;;23.70;99.90;;;;;;5026909;28;20468;-54
2023/07/19 10:22:58;;;;;;;7.20;2.10;;;23.90;99.90;;;;;;5023382;28;20554;-54
2023/07/19 10:25:27;;;;;;;5.27;2.27;;;24.00;99.90;;;;;;5034793;28;21030;-56
2023/07/19 10:27:58;;;;;;;5.30;2.10;;;24.10;99.90;;;;;;5034462;28;20483;-56
2023/07/19 10:30:47;;;;;;;13.73;2.10;;;24.30;99.90;;;;;;5030684;28;21030;-55
2023/07/19 10:33:14;;;;;;;11.40;2.20;;;24.50;99.90;;;;;;5025107;28;20505;-56
2023/07/19 10:35:42;;;;;;;5.80;2.00;;;25.70;99.90;;;;;;5025339;28;20554;-54
2023/07/19 10:38:13;;;;;;;2.47;1.93;;;26.30;99.90;;;;;;5027280;28;20507;-56
2023/07/19 10:40:40;;;;;;;6.10;2.50;;;27.80;99.90;;;;;;5029835;28;20915;-55
2023/07/19 10:43:06;;;;;;;9.20;2.07;;;28.10;99.90;;;;;;5034772;28;20900;-55
2023/07/19 10:45:33;;;;;;;3.17;2.13;;;27.40;99.90;;;;;;5030806;28;20877;-54
2023/07/19 10:48:01;;;;;;;9.63;2.00;;;27.00;99.90;;;;;;5033535;28;20570;-55
2023/07/19 10:50:27;;;;;;;2.63;1.53;;;27.30;99.90;;;;;;5030956;28;20510;-55
2023/07/19 10:52:54;;;;;;;4.17;1.70;;;26.60;99.90;;;;;;5032655;28;20572;-53
2023/07/19 10:55:21;;;;;;;3.60;2.00;;;26.30;99.90;;;;;;5030875;28;20494;-56
2023/07/19 10:57:48;;;;;;;3.00;1.57;;;25.70;99.90;;;;;;5038006;28;20522;-54
2023/07/19 11:00:15;;;;;;;2.80;2.00;;;25.40;99.90;;;;;;5037035;28;20458;-56
2023/07/19 11:02:42;;;;;;;8.43;2.53;;;24.90;99.90;;;;;;5031891;28;20458;-56
2023/07/19 11:05:11;;;;;;;4.20;2.20;;;24.80;99.90;;;;;;5028918;28;20495;-54
2023/07/19 11:07:37;;;;;;;5.53;1.93;;;24.90;99.90;;;;;;5036622;28;20483;-55
2023/07/19 11:10:05;;;;;;;11.23;2.17;;;25.70;99.90;;;;;;5033316;28;21051;-56
2023/07/19 11:12:32;;;;;;;9.77;2.10;;;25.70;99.90;;;;;;5026777;28;20458;-55
2023/07/19 11:15:01;;;;;;;4.90;1.73;;;25.20;99.90;;;;;;5031527;28;20550;-54
2023/07/19 11:17:28;;;;;;;8.47;2.10;;;24.70;99.90;;;;;;5014540;28;20487;-54
2023/07/19 11:19:55;;;;;;;4.93;1.87;;;24.50;99.90;;;;;;5014516;28;20447;-55
2023/07/19 11:22:24;;;;;;;2.47;2.03;;;24.30;99.90;;;;;;5030484;28;20542;-55
2023/07/19 11:24:52;;;;;;;6.47;2.10;;;23.80;99.90;;;;;;5020644;28;20541;-53
2023/07/19 11:27:19;;;;;;;3.50;1.80;;;23.80;99.90;;;;;;5017581;28;20501;-54
2023/07/19 11:29:49;;;;;;;3.60;2.33;;;23.90;99.90;;;;;;5025100;28;20474;-55
2023/07/19 11:32:18;;;;;;;5.83;2.27;;;24.20;99.90;;;;;;5030051;28;20667;-55
2023/07/19 11:34:46;;;;;;;3.13;2.17;;;24.50;99.90;;;;;;5012323;28;20467;-54
2023/07/19 11:37:17;;;;;;;6.40;2.00;;;24.30;99.90;;;;;;5022124;28;20482;-54
2023/07/19 11:39:47;;;;;;;6.83;2.00;;;24.40;99.90;;;;;;5026193;28;20467;-54
2023/07/19 11:42:13;;;;;;;4.00;1.97;;;24.50;99.90;;;;;;5026023;28;20555;-54
2023/07/19 11:44:44;;;;;;;4.03;2.30;;;24.40;99.90;;;;;;5025788;28;20539;-53
2023/07/19 11:47:11;;;;;;;9.53;1.90;;;24.70;99.90;;;;;;5024422;28;20638;-55
2023/07/19 11:49:37;;;;;;;11.77;2.47;;;25.00;99.90;;;;;;5033489;28;20478;-54
2023/07/19 11:52:05;;;;;;;9.53;2.20;;;25.30;99.90;;;;;;5034994;28;20490;-55
2023/07/19 11:54:31;;;;;;;1.83;1.67;;;25.40;99.90;;;;;;5031816;28;20545;-53
2023/07/19 11:56:59;;;;;;;1.93;1.47;;;25.40;99.90;;;;;;5031054;28;20565;-55
2023/07/19 11:59:26;;;;;;;5.00;2.50;;;25.00;99.90;;;;;;5038777;28;20520;-54
2023/07/19 12:01:54;;;;;;;23.37;2.00;;;24.90;99.90;;;;;;5030647;28;20533;-55
2023/07/19 12:04:20;;;;;;;4.90;2.37;;;24.60;99.90;;;;;;5026094;28;20465;-53
2023/07/19 12:06:47;;;;;;;4.20;2.03;;;24.40;99.90;;;;;;5035930;28;20506;-55
2023/07/19 12:09:14;;;;;;;5.33;2.27;;;24.40;99.90;;;;;;5042860;28;20486;-55
2023/07/19 12:11:41;;;;;;;6.83;2.60;;;24.40;99.90;;;;;;5029104;28;20561;-54
2023/07/19 12:14:09;;;;;;;2.67;2.30;;;24.30;99.90;;;;;;5036262;28;20498;-53
2023/07/19 12:16:35;;;;;;;11.33;2.20;;;24.30;99.90;;;;;;5039658;28;20569;-54
2023/07/19 12:19:02;;;;;;;5.40;2.23;;;24.30;99.90;;;;;;5042879;28;20516;-54
2023/07/19 12:21:28;;;;;;;2.93;1.80;;;24.10;99.90;;;;;;5026826;28;21401;-54
2023/07/19 12:23:55;;;;;;;5.77;2.90;;;23.90;99.90;;;;;;5023269;28;20497;-55
2023/07/19 12:26:21;;;;;;;5.80;2.13;;;23.60;99.90;;;;;;5031576;28;20577;-55
2023/07/19 12:28:48;;;;;;;1.90;1.80;;;23.80;99.90;;;;;;5038347;28;20513;-53
2023/07/19 12:31:17;;;;;;;16.47;2.57;;;24.00;99.90;;;;;;5028332;28;21023;-55
2023/07/19 12:33:44;;;;;;;20.73;2.10;;;24.10;99.90;;;;;;5026925;28;20486;-54
2023/07/19 12:36:10;;;;;;;6.27;1.63;;;24.10;99.90;;;;;;5027314;28;20454;-55
2023/07/19 12:38:37;;;;;;;2.50;2.30;;;23.90;99.90;;;;;;5029075;28;20554;-54
2023/07/19 12:41:03;;;;;;;4.33;2.33;;;24.00;99.90;;;;;;5048845;28;20462;-54
2023/07/19 12:43:30;;;;;;;14.50;2.30;;;24.00;99.90;;;;;;5034298;28;20498;-56
2023/07/19 12:45:57;;;;;;;3.50;2.47;;;24.10;99.90;;;;;;5043706;28;20566;-53